THY801 SKBO-MPTO
Flight info
| Callsign | THY801 |
|---|---|
| Flight time | 1h 5m |
| Altitude | 40000 |
| Route | SOA1A VASIL UL423 PULOX DCT SIGUN ISOKO2A |
| Aircraft | A359/H-SDE2E3GHIJ3J4J5LM1ORWXY/LB1D1 |
Departure
| Time | 2026-05-01 10:35 |
|---|---|
| Airport | El Dorado International Airport (SKBO) |
Arrival
| Time | 2026-05-01 11:41 |
|---|---|
| Airport | Tocumen International Airport (MPTO) |
| Time | Latitude | Longitude | Altitude | Speed | Heading |
|---|---|---|---|---|---|
| 2026-05-01 10:05 | 4.69990 | -74.14126 | 8379 ft | 0 kts | 216° |
| 2026-05-01 10:17 | 4.69994 | -74.14124 | 8379 ft | 3 kts | 216° |
| 2026-05-01 10:18 | 4.70029 | -74.14098 | 8376 ft | 3 kts | 220° |
| 2026-05-01 10:18 | 4.70043 | -74.14081 | 8379 ft | 3 kts | 256° |
| 2026-05-01 10:18 | 4.70042 | -74.14061 | 8379 ft | 3 kts | 297° |
| 2026-05-01 10:19 | 4.70029 | -74.14041 | 8379 ft | 3 kts | 308° |
| 2026-05-01 10:19 | 4.70016 | -74.14024 | 8376 ft | 3 kts | 306° |
| 2026-05-01 10:19 | 4.70002 | -74.14005 | 8378 ft | 3 kts | 307° |
| 2026-05-01 10:20 | 4.69998 | -74.13999 | 8379 ft | 0 kts | 308° |
| 2026-05-01 10:22 | 4.70009 | -74.14014 | 8378 ft | 5 kts | 308° |
| 2026-05-01 10:22 | 4.70104 | -74.14034 | 8375 ft | 9 kts | 333° |
| 2026-05-01 10:23 | 4.70150 | -74.14080 | 8375 ft | 10 kts | 308° |
| 2026-05-01 10:23 | 4.70249 | -74.14210 | 8377 ft | 13 kts | 307° |
| 2026-05-01 10:23 | 4.70305 | -74.14285 | 8376 ft | 14 kts | 307° |
| 2026-05-01 10:24 | 4.70417 | -74.14433 | 8377 ft | 11 kts | 307° |
| 2026-05-01 10:24 | 4.70383 | -74.14548 | 8377 ft | 10 kts | 217° |
| 2026-05-01 10:25 | 4.70255 | -74.14645 | 8378 ft | 13 kts | 217° |
| 2026-05-01 10:25 | 4.70106 | -74.14757 | 8376 ft | 14 kts | 217° |
| 2026-05-01 10:26 | 4.70024 | -74.14818 | 8375 ft | 15 kts | 217° |
| 2026-05-01 10:26 | 4.69943 | -74.14879 | 8375 ft | 14 kts | 217° |
| 2026-05-01 10:26 | 4.69878 | -74.15002 | 8376 ft | 10 kts | 301° |
| 2026-05-01 10:27 | 4.69968 | -74.15125 | 8376 ft | 12 kts | 307° |
| 2026-05-01 10:27 | 4.70072 | -74.15263 | 8377 ft | 13 kts | 307° |
| 2026-05-01 10:28 | 4.70130 | -74.15337 | 8375 ft | 14 kts | 308° |
| 2026-05-01 10:28 | 4.70251 | -74.15497 | 8376 ft | 15 kts | 306° |
| 2026-05-01 10:28 | 4.70313 | -74.15582 | 8375 ft | 15 kts | 306° |
| 2026-05-01 10:29 | 4.70447 | -74.15757 | 8375 ft | 16 kts | 307° |
| 2026-05-01 10:29 | 4.70514 | -74.15846 | 8375 ft | 16 kts | 307° |
| 2026-05-01 10:30 | 4.70653 | -74.16030 | 8375 ft | 17 kts | 307° |
| 2026-05-01 10:30 | 4.70796 | -74.16218 | 8380 ft | 17 kts | 307° |
| 2026-05-01 10:31 | 4.70943 | -74.16413 | 8377 ft | 18 kts | 307° |
| 2026-05-01 10:31 | 4.71096 | -74.16614 | 8377 ft | 18 kts | 307° |
| 2026-05-01 10:32 | 4.71227 | -74.16788 | 8375 ft | 11 kts | 307° |
| 2026-05-01 10:32 | 4.71242 | -74.16850 | 8379 ft | 9 kts | 252° |
| 2026-05-01 10:32 | 4.71123 | -74.16892 | 8378 ft | 11 kts | 173° |
| 2026-05-01 10:33 | 4.71004 | -74.16846 | 8375 ft | 4 kts | 129° |
| 2026-05-01 10:33 | 4.71003 | -74.16846 | 8379 ft | 0 kts | 129° |
| 2026-05-01 10:34 | 4.71000 | -74.16842 | 8379 ft | 5 kts | 129° |
| 2026-05-01 10:35 | 4.70681 | -74.16421 | 8377 ft | 100 kts | 127° |
| 2026-05-01 10:35 | 4.70131 | -74.15694 | 8375 ft | 160 kts | 127° |
| 2026-05-01 10:35 | 4.69386 | -74.14707 | 8818 ft | 180 kts | 124° |
| 2026-05-01 10:35 | 4.68621 | -74.13752 | 9718 ft | 178 kts | 133° |
| 2026-05-01 10:36 | 4.66032 | -74.13432 | 10289 ft | 226 kts | 205° |
| 2026-05-01 10:36 | 4.64758 | -74.14438 | 10717 ft | 240 kts | 224° |
| 2026-05-01 10:36 | 4.63764 | -74.15806 | 11352 ft | 247 kts | 239° |
| 2026-05-01 10:37 | 4.62944 | -74.17344 | 12013 ft | 252 kts | 238° |
| 2026-05-01 10:37 | 4.61416 | -74.20541 | 13396 ft | 261 kts | 254° |
| 2026-05-01 10:37 | 4.61077 | -74.22369 | 13889 ft | 276 kts | 259° |
| 2026-05-01 10:38 | 4.60757 | -74.24367 | 14126 ft | 303 kts | 258° |
| 2026-05-01 10:38 | 4.60391 | -74.26523 | 14371 ft | 325 kts | 258° |
| 2026-05-01 10:38 | 4.60164 | -74.28852 | 14632 ft | 346 kts | 265° |
| 2026-05-01 10:38 | 4.60038 | -74.31322 | 14902 ft | 364 kts | 266° |
| 2026-05-01 10:39 | 4.59916 | -74.33905 | 15208 ft | 377 kts | 265° |
| 2026-05-01 10:39 | 4.59786 | -74.36553 | 15700 ft | 383 kts | 265° |
| 2026-05-01 10:39 | 4.59825 | -74.39235 | 16239 ft | 389 kts | 277° |
| 2026-05-01 10:39 | 4.60649 | -74.41823 | 16783 ft | 394 kts | 298° |
| 2026-05-01 10:40 | 4.62205 | -74.44097 | 17364 ft | 398 kts | 308° |
| 2026-05-01 10:40 | 4.63938 | -74.46279 | 17924 ft | 403 kts | 309° |
| 2026-05-01 10:40 | 4.65698 | -74.48481 | 18486 ft | 406 kts | 309° |
| 2026-05-01 10:40 | 4.67464 | -74.50702 | 18943 ft | 410 kts | 308° |
| 2026-05-01 10:41 | 4.69240 | -74.52949 | 19462 ft | 413 kts | 308° |
| 2026-05-01 10:41 | 4.71028 | -74.55216 | 20021 ft | 416 kts | 308° |
| 2026-05-01 10:41 | 4.74700 | -74.59754 | 21095 ft | 423 kts | 315° |
| 2026-05-01 10:42 | 4.76942 | -74.61668 | 21652 ft | 425 kts | 323° |
| 2026-05-01 10:42 | 4.79321 | -74.63440 | 22168 ft | 428 kts | 324° |
| 2026-05-01 10:42 | 4.81736 | -74.65215 | 22653 ft | 432 kts | 324° |
| 2026-05-01 10:42 | 4.84169 | -74.67008 | 23179 ft | 436 kts | 324° |
| 2026-05-01 10:43 | 4.86571 | -74.68816 | 23662 ft | 440 kts | 323° |
| 2026-05-01 10:43 | 4.88987 | -74.70714 | 24103 ft | 442 kts | 322° |
| 2026-05-01 10:43 | 4.91406 | -74.72625 | 24583 ft | 444 kts | 322° |
| 2026-05-01 10:43 | 4.93700 | -74.74701 | 25033 ft | 446 kts | 311° |
| 2026-05-01 10:44 | 4.95422 | -74.77281 | 25547 ft | 446 kts | 297° |
| 2026-05-01 10:44 | 4.96809 | -74.80072 | 26099 ft | 448 kts | 295° |
| 2026-05-01 10:44 | 4.98159 | -74.82896 | 26636 ft | 450 kts | 295° |
| 2026-05-01 10:44 | 4.99521 | -74.85730 | 27147 ft | 452 kts | 295° |
| 2026-05-01 10:45 | 5.00896 | -74.88574 | 27698 ft | 454 kts | 295° |
| 2026-05-01 10:45 | 5.02278 | -74.91425 | 28225 ft | 455 kts | 295° |
| 2026-05-01 10:45 | 5.03668 | -74.94289 | 28723 ft | 458 kts | 295° |
| 2026-05-01 10:45 | 5.05067 | -74.97167 | 29233 ft | 460 kts | 295° |
| 2026-05-01 10:46 | 5.06473 | -75.00058 | 29751 ft | 462 kts | 295° |
| 2026-05-01 10:46 | 5.07885 | -75.02963 | 30337 ft | 464 kts | 295° |
| 2026-05-01 10:46 | 5.09302 | -75.05876 | 30764 ft | 466 kts | 295° |
| 2026-05-01 10:46 | 5.10717 | -75.08784 | 31385 ft | 463 kts | 294° |
| 2026-05-01 10:47 | 5.12130 | -75.11686 | 31856 ft | 464 kts | 294° |
| 2026-05-01 10:47 | 5.13548 | -75.14604 | 32225 ft | 467 kts | 294° |
| 2026-05-01 10:47 | 5.15036 | -75.17507 | 32594 ft | 470 kts | 298° |
| 2026-05-01 10:47 | 5.16883 | -75.20227 | 32998 ft | 474 kts | 305° |
| 2026-05-01 10:48 | 5.18966 | -75.22794 | 33449 ft | 476 kts | 308° |
| 2026-05-01 10:48 | 5.21152 | -75.25293 | 33865 ft | 477 kts | 308° |
| 2026-05-01 10:48 | 5.23380 | -75.27766 | 34181 ft | 479 kts | 309° |
| 2026-05-01 10:48 | 5.25626 | -75.30240 | 34466 ft | 481 kts | 309° |
| 2026-05-01 10:49 | 5.27878 | -75.32731 | 34730 ft | 482 kts | 309° |
| 2026-05-01 10:49 | 5.30122 | -75.35229 | 35107 ft | 481 kts | 309° |
| 2026-05-01 10:49 | 5.32344 | -75.37723 | 35508 ft | 479 kts | 308° |
| 2026-05-01 10:49 | 5.34555 | -75.40216 | 35888 ft | 477 kts | 308° |
| 2026-05-01 10:50 | 5.36754 | -75.42702 | 36253 ft | 476 kts | 308° |
| 2026-05-01 10:50 | 5.38952 | -75.45188 | 36620 ft | 475 kts | 309° |
| 2026-05-01 10:50 | 5.41139 | -75.47663 | 37011 ft | 474 kts | 309° |
| 2026-05-01 10:50 | 5.43319 | -75.50135 | 37358 ft | 472 kts | 309° |
| 2026-05-01 10:51 | 5.45497 | -75.52603 | 37677 ft | 472 kts | 309° |
| 2026-05-01 10:51 | 5.47667 | -75.55062 | 37990 ft | 470 kts | 309° |
| 2026-05-01 10:51 | 5.49806 | -75.57480 | 38333 ft | 469 kts | 309° |
| 2026-05-01 10:51 | 5.51966 | -75.59926 | 38635 ft | 468 kts | 309° |
| 2026-05-01 10:52 | 5.54121 | -75.62370 | 38892 ft | 468 kts | 309° |
| 2026-05-01 10:52 | 5.58483 | -75.67317 | 39011 ft | 476 kts | 309° |
| 2026-05-01 10:52 | 5.60672 | -75.69796 | 39288 ft | 473 kts | 309° |
| 2026-05-01 10:53 | 5.62853 | -75.72269 | 39547 ft | 473 kts | 310° |
| 2026-05-01 10:53 | 5.65070 | -75.74771 | 39848 ft | 474 kts | 310° |
| 2026-05-01 10:53 | 5.67231 | -75.77208 | 39993 ft | 473 kts | 310° |
| 2026-05-01 10:54 | 5.71587 | -75.82138 | 39991 ft | 471 kts | 309° |
| 2026-05-01 10:54 | 5.75819 | -75.87156 | 39989 ft | 470 kts | 308° |
| 2026-05-01 10:55 | 5.79968 | -75.92237 | 39980 ft | 471 kts | 307° |
| 2026-05-01 10:55 | 5.84149 | -75.97319 | 39972 ft | 472 kts | 308° |
| 2026-05-01 10:56 | 5.88373 | -76.02370 | 39972 ft | 472 kts | 308° |
| 2026-05-01 10:56 | 5.92571 | -76.07422 | 39955 ft | 471 kts | 308° |
| 2026-05-01 10:57 | 5.96776 | -76.12498 | 39953 ft | 475 kts | 308° |
| 2026-05-01 10:57 | 6.01015 | -76.17567 | 39952 ft | 474 kts | 308° |
| 2026-05-01 10:58 | 6.05248 | -76.22649 | 39936 ft | 474 kts | 308° |
| 2026-05-01 10:58 | 6.09474 | -76.27742 | 39936 ft | 474 kts | 308° |
| 2026-05-01 10:59 | 6.13700 | -76.32832 | 39943 ft | 474 kts | 308° |
| 2026-05-01 10:59 | 6.17927 | -76.37928 | 39906 ft | 473 kts | 308° |
| 2026-05-01 11:00 | 6.22140 | -76.42995 | 39914 ft | 474 kts | 308° |
| 2026-05-01 11:00 | 6.26344 | -76.48079 | 39914 ft | 473 kts | 307° |
| 2026-05-01 11:01 | 6.30569 | -76.53153 | 39881 ft | 474 kts | 308° |
| 2026-05-01 11:01 | 6.34810 | -76.58268 | 39877 ft | 475 kts | 307° |
| 2026-05-01 11:02 | 6.39058 | -76.63393 | 39876 ft | 479 kts | 308° |
| 2026-05-01 11:02 | 6.43325 | -76.68526 | 39859 ft | 478 kts | 308° |
| 2026-05-01 11:03 | 6.47571 | -76.73660 | 39859 ft | 478 kts | 307° |
| 2026-05-01 11:03 | 6.51798 | -76.78766 | 39860 ft | 478 kts | 307° |
| 2026-05-01 11:04 | 6.56055 | -76.83909 | 39853 ft | 478 kts | 308° |
| 2026-05-01 11:04 | 6.60309 | -76.89044 | 39855 ft | 477 kts | 307° |
| 2026-05-01 11:05 | 6.64574 | -76.94190 | 39850 ft | 479 kts | 307° |
| 2026-05-01 11:05 | 6.68847 | -76.99345 | 39848 ft | 480 kts | 307° |
| 2026-05-01 11:06 | 6.73105 | -77.04507 | 39850 ft | 478 kts | 307° |
| 2026-05-01 11:06 | 6.77363 | -77.09653 | 39852 ft | 479 kts | 307° |
| 2026-05-01 11:07 | 6.83752 | -77.17376 | 39851 ft | 478 kts | 307° |
| 2026-05-01 11:07 | 6.88011 | -77.22534 | 39852 ft | 479 kts | 307° |
| 2026-05-01 11:08 | 6.92273 | -77.27691 | 39853 ft | 479 kts | 307° |
| 2026-05-01 11:09 | 6.98663 | -77.35427 | 39852 ft | 479 kts | 307° |
| 2026-05-01 11:09 | 7.02938 | -77.40590 | 39857 ft | 479 kts | 307° |
| 2026-05-01 11:10 | 7.09299 | -77.48317 | 39856 ft | 475 kts | 306° |
| 2026-05-01 11:10 | 7.13530 | -77.53492 | 39854 ft | 480 kts | 307° |
| 2026-05-01 11:11 | 7.17801 | -77.58685 | 39861 ft | 481 kts | 307° |
| 2026-05-01 11:11 | 7.22082 | -77.63842 | 39859 ft | 479 kts | 307° |
| 2026-05-01 11:12 | 7.26346 | -77.68991 | 39858 ft | 479 kts | 307° |
| 2026-05-01 11:12 | 7.30599 | -77.74149 | 39856 ft | 478 kts | 307° |
| 2026-05-01 11:13 | 7.34845 | -77.79306 | 39725 ft | 478 kts | 307° |
| 2026-05-01 11:13 | 7.36963 | -77.81879 | 39479 ft | 475 kts | 307° |
| 2026-05-01 11:13 | 7.39066 | -77.84430 | 39016 ft | 473 kts | 307° |
| 2026-05-01 11:14 | 7.41205 | -77.86959 | 38330 ft | 475 kts | 309° |
| 2026-05-01 11:14 | 7.43384 | -77.89468 | 37614 ft | 476 kts | 308° |
| 2026-05-01 11:14 | 7.45560 | -77.91972 | 36976 ft | 475 kts | 308° |
| 2026-05-01 11:14 | 7.47736 | -77.94482 | 36313 ft | 475 kts | 309° |
| 2026-05-01 11:15 | 7.49905 | -77.96990 | 35641 ft | 475 kts | 309° |
| 2026-05-01 11:15 | 7.52074 | -77.99501 | 34956 ft | 476 kts | 309° |
| 2026-05-01 11:15 | 7.54249 | -78.02023 | 34289 ft | 477 kts | 309° |
| 2026-05-01 11:15 | 7.56424 | -78.04546 | 33715 ft | 475 kts | 309° |
| 2026-05-01 11:16 | 7.58587 | -78.07056 | 33134 ft | 472 kts | 309° |
| 2026-05-01 11:16 | 7.60733 | -78.09545 | 32580 ft | 469 kts | 309° |
| 2026-05-01 11:16 | 7.62864 | -78.12019 | 32029 ft | 465 kts | 309° |
| 2026-05-01 11:16 | 7.64979 | -78.14475 | 31490 ft | 462 kts | 309° |
| 2026-05-01 11:17 | 7.67083 | -78.16918 | 30933 ft | 460 kts | 309° |
| 2026-05-01 11:17 | 7.69176 | -78.19349 | 30407 ft | 458 kts | 309° |
| 2026-05-01 11:17 | 7.71260 | -78.21769 | 29867 ft | 455 kts | 309° |
| 2026-05-01 11:17 | 7.73331 | -78.24173 | 29257 ft | 452 kts | 309° |
| 2026-05-01 11:18 | 7.75383 | -78.26560 | 28740 ft | 449 kts | 309° |
| 2026-05-01 11:18 | 7.77419 | -78.28928 | 28211 ft | 445 kts | 309° |
| 2026-05-01 11:18 | 7.79439 | -78.31276 | 27691 ft | 442 kts | 309° |
| 2026-05-01 11:18 | 7.81416 | -78.33578 | 27180 ft | 438 kts | 309° |
| 2026-05-01 11:19 | 7.83404 | -78.35889 | 26668 ft | 435 kts | 310° |
| 2026-05-01 11:19 | 7.85380 | -78.38188 | 26146 ft | 432 kts | 310° |
| 2026-05-01 11:19 | 7.87340 | -78.40467 | 25627 ft | 429 kts | 310° |
| 2026-05-01 11:19 | 7.89289 | -78.42734 | 25110 ft | 427 kts | 310° |
| 2026-05-01 11:20 | 7.91227 | -78.44990 | 24596 ft | 424 kts | 310° |
| 2026-05-01 11:20 | 7.93155 | -78.47234 | 24077 ft | 423 kts | 310° |
| 2026-05-01 11:20 | 7.95078 | -78.49472 | 23560 ft | 421 kts | 310° |
| 2026-05-01 11:20 | 7.96994 | -78.51704 | 22974 ft | 420 kts | 310° |
| 2026-05-01 11:21 | 7.98286 | -78.53208 | 22601 ft | 419 kts | 310° |
| 2026-05-01 11:21 | 8.00187 | -78.55422 | 22078 ft | 416 kts | 310° |
| 2026-05-01 11:21 | 8.02050 | -78.57591 | 21554 ft | 414 kts | 310° |
| 2026-05-01 11:21 | 8.04563 | -78.60518 | 20849 ft | 411 kts | 311° |
| 2026-05-01 11:22 | 8.06428 | -78.62692 | 20324 ft | 409 kts | 311° |
| 2026-05-01 11:22 | 8.07662 | -78.64128 | 19982 ft | 408 kts | 311° |
| 2026-05-01 11:22 | 8.09518 | -78.66290 | 19437 ft | 407 kts | 311° |
| 2026-05-01 11:22 | 8.11365 | -78.68445 | 18925 ft | 405 kts | 311° |
| 2026-05-01 11:23 | 8.13206 | -78.70591 | 18408 ft | 403 kts | 311° |
| 2026-05-01 11:23 | 8.15009 | -78.72693 | 18253 ft | 389 kts | 311° |
| 2026-05-01 11:23 | 8.16744 | -78.74715 | 18135 ft | 375 kts | 311° |
| 2026-05-01 11:23 | 8.18423 | -78.76673 | 17964 ft | 363 kts | 311° |
| 2026-05-01 11:24 | 8.20047 | -78.78567 | 17760 ft | 352 kts | 311° |
| 2026-05-01 11:24 | 8.21645 | -78.80433 | 17318 ft | 350 kts | 311° |
| 2026-05-01 11:24 | 8.24943 | -78.83960 | 16583 ft | 342 kts | 317° |
| 2026-05-01 11:25 | 8.26669 | -78.85597 | 16165 ft | 339 kts | 318° |
| 2026-05-01 11:25 | 8.30097 | -78.88830 | 15451 ft | 335 kts | 318° |
| 2026-05-01 11:25 | 8.31794 | -78.90432 | 15233 ft | 334 kts | 318° |
| 2026-05-01 11:26 | 8.33485 | -78.92032 | 14922 ft | 332 kts | 318° |
| 2026-05-01 11:26 | 8.36833 | -78.95204 | 14227 ft | 328 kts | 318° |
| 2026-05-01 11:26 | 8.38489 | -78.96773 | 13895 ft | 325 kts | 318° |
| 2026-05-01 11:27 | 8.40134 | -78.98330 | 13553 ft | 324 kts | 318° |
| 2026-05-01 11:27 | 8.41772 | -78.99878 | 13195 ft | 321 kts | 318° |
| 2026-05-01 11:27 | 8.43399 | -79.01418 | 12858 ft | 319 kts | 318° |
| 2026-05-01 11:27 | 8.45012 | -79.02946 | 12530 ft | 316 kts | 318° |
| 2026-05-01 11:28 | 8.46613 | -79.04466 | 12194 ft | 316 kts | 318° |
| 2026-05-01 11:28 | 8.48208 | -79.05979 | 11853 ft | 314 kts | 318° |
| 2026-05-01 11:28 | 8.49800 | -79.07488 | 11535 ft | 313 kts | 318° |
| 2026-05-01 11:29 | 8.52953 | -79.10477 | 10894 ft | 309 kts | 318° |
| 2026-05-01 11:29 | 8.54497 | -79.11940 | 10582 ft | 308 kts | 318° |
| 2026-05-01 11:29 | 8.57596 | -79.14879 | 9942 ft | 304 kts | 318° |
| 2026-05-01 11:30 | 8.59150 | -79.16355 | 9628 ft | 302 kts | 318° |
| 2026-05-01 11:30 | 8.60655 | -79.17782 | 9292 ft | 299 kts | 318° |
| 2026-05-01 11:30 | 8.62171 | -79.19220 | 8975 ft | 298 kts | 318° |
| 2026-05-01 11:30 | 8.63677 | -79.20649 | 8673 ft | 296 kts | 318° |
| 2026-05-01 11:31 | 8.65172 | -79.22067 | 8357 ft | 294 kts | 318° |
| 2026-05-01 11:31 | 8.66658 | -79.23478 | 8060 ft | 293 kts | 318° |
| 2026-05-01 11:31 | 8.68138 | -79.24885 | 7748 ft | 291 kts | 318° |
| 2026-05-01 11:31 | 8.69603 | -79.26282 | 7430 ft | 288 kts | 318° |
| 2026-05-01 11:32 | 8.71068 | -79.27668 | 7134 ft | 288 kts | 319° |
| 2026-05-01 11:32 | 8.72520 | -79.29046 | 6836 ft | 285 kts | 319° |
| 2026-05-01 11:32 | 8.73939 | -79.30390 | 6691 ft | 274 kts | 319° |
| 2026-05-01 11:32 | 8.75292 | -79.31676 | 6487 ft | 258 kts | 319° |
| 2026-05-01 11:33 | 8.76592 | -79.32914 | 6169 ft | 254 kts | 319° |
| 2026-05-01 11:33 | 8.77888 | -79.34148 | 5919 ft | 258 kts | 319° |
| 2026-05-01 11:33 | 8.79197 | -79.35390 | 5678 ft | 258 kts | 319° |
| 2026-05-01 11:33 | 8.80492 | -79.36620 | 5446 ft | 248 kts | 319° |
| 2026-05-01 11:34 | 8.81716 | -79.37783 | 5158 ft | 235 kts | 319° |
| 2026-05-01 11:34 | 8.82883 | -79.38895 | 4923 ft | 229 kts | 319° |
| 2026-05-01 11:34 | 8.83938 | -79.40093 | 4694 ft | 228 kts | 308° |
| 2026-05-01 11:34 | 8.84811 | -79.41428 | 4439 ft | 224 kts | 304° |
| 2026-05-01 11:35 | 8.85646 | -79.42779 | 4207 ft | 225 kts | 304° |
| 2026-05-01 11:35 | 8.86460 | -79.44103 | 3970 ft | 222 kts | 305° |
| 2026-05-01 11:35 | 8.87247 | -79.45380 | 3751 ft | 206 kts | 305° |
| 2026-05-01 11:35 | 8.88087 | -79.46520 | 3534 ft | 201 kts | 319° |
| 2026-05-01 11:36 | 8.89263 | -79.47220 | 3350 ft | 197 kts | 346° |
| 2026-05-01 11:36 | 8.90614 | -79.47219 | 3205 ft | 195 kts | 18° |
| 2026-05-01 11:36 | 8.91833 | -79.46658 | 3124 ft | 189 kts | 28° |
| 2026-05-01 11:36 | 8.92959 | -79.46008 | 2935 ft | 183 kts | 30° |
| 2026-05-01 11:37 | 8.94029 | -79.45389 | 2746 ft | 171 kts | 28° |
| 2026-05-01 11:37 | 8.95015 | -79.44824 | 2601 ft | 157 kts | 29° |
| 2026-05-01 11:37 | 8.95920 | -79.44305 | 2488 ft | 142 kts | 28° |
| 2026-05-01 11:37 | 8.96733 | -79.43843 | 2333 ft | 132 kts | 29° |
| 2026-05-01 11:38 | 8.97536 | -79.43384 | 2038 ft | 131 kts | 29° |
| 2026-05-01 11:38 | 8.98341 | -79.42927 | 1676 ft | 135 kts | 27° |
| 2026-05-01 11:38 | 8.99169 | -79.42456 | 1348 ft | 137 kts | 28° |
| 2026-05-01 11:38 | 8.99962 | -79.42004 | 1120 ft | 129 kts | 27° |
| 2026-05-01 11:39 | 9.00739 | -79.41562 | 975 ft | 133 kts | 30° |
| 2026-05-01 11:39 | 9.01549 | -79.41099 | 847 ft | 133 kts | 29° |
| 2026-05-01 11:39 | 9.02359 | -79.40643 | 681 ft | 133 kts | 27° |
| 2026-05-01 11:39 | 9.03165 | -79.40179 | 466 ft | 135 kts | 31° |
| 2026-05-01 11:40 | 9.03976 | -79.39707 | 249 ft | 136 kts | 28° |
| 2026-05-01 11:40 | 9.04803 | -79.39241 | 62 ft | 136 kts | 28° |
| 2026-05-01 11:40 | 9.05589 | -79.38787 | 39 ft | 121 kts | 25° |
| 2026-05-01 11:40 | 9.06200 | -79.38443 | 38 ft | 65 kts | 29° |
| 2026-05-01 11:41 | 9.06426 | -79.38315 | 35 ft | 30 kts | 29° |
| 2026-05-01 11:41 | 9.06600 | -79.38216 | 35 ft | 28 kts | 29° |
| 2026-05-01 11:41 | 9.06769 | -79.38120 | 35 ft | 28 kts | 29° |
| 2026-05-01 11:41 | 9.06904 | -79.38043 | 36 ft | 19 kts | 29° |
| 2026-05-01 11:42 | 9.07017 | -79.37979 | 34 ft | 18 kts | 29° |
| 2026-05-01 11:42 | 9.07097 | -79.37933 | 36 ft | 10 kts | 26° |
| 2026-05-01 11:42 | 9.07161 | -79.37948 | 36 ft | 11 kts | 312° |
| 2026-05-01 11:42 | 9.07198 | -79.38013 | 36 ft | 9 kts | 291° |
| 2026-05-01 11:43 | 9.07183 | -79.38067 | 36 ft | 9 kts | 226° |
| 2026-05-01 11:43 | 9.07138 | -79.38096 | 35 ft | 0 kts | 211° |
| 2026-05-01 11:44 | 9.07119 | -79.38108 | 36 ft | 6 kts | 211° |
| 2026-05-01 11:44 | 9.07068 | -79.38138 | 36 ft | 11 kts | 210° |
| 2026-05-01 11:45 | 9.06989 | -79.38181 | 36 ft | 15 kts | 209° |
| 2026-05-01 11:45 | 9.06905 | -79.38254 | 36 ft | 17 kts | 232° |
| 2026-05-01 11:45 | 9.06850 | -79.38338 | 36 ft | 13 kts | 238° |
| 2026-05-01 11:45 | 9.06833 | -79.38362 | 36 ft | 6 kts | 230° |
| 2026-05-01 11:46 | 9.06789 | -79.38392 | 36 ft | 9 kts | 207° |
| 2026-05-01 11:46 | 9.06720 | -79.38428 | 36 ft | 13 kts | 207° |
| 2026-05-01 11:46 | 9.06648 | -79.38465 | 36 ft | 9 kts | 207° |
| 2026-05-01 11:46 | 9.06598 | -79.38494 | 36 ft | 4 kts | 223° |
| 2026-05-01 11:47 | 9.06600 | -79.38526 | 36 ft | 6 kts | 287° |
| 2026-05-01 11:47 | 9.06621 | -79.38568 | 36 ft | 3 kts | 299° |
| 2026-05-01 11:47 | 9.06630 | -79.38585 | 36 ft | 2 kts | 300° |
| 2026-05-01 11:47 | 9.06632 | -79.38587 | 36 ft | 0 kts | 300° |
| 2026-05-01 11:48 | 9.06635 | -79.38592 | 36 ft | 0 kts | 300° |